sensor_id;sensor_type;location;lat;lon;timestamp;P1;durP1;ratioP1;P2;durP2;ratioP2
9270;SDS011;4673;53.458;9.940;2023-09-07T00:00:14;0.80;;;0.80;;
9270;SDS011;4673;53.458;9.940;2023-09-07T00:02:40;0.90;;;0.90;;
9270;SDS011;4673;53.458;9.940;2023-09-07T00:05:06;0.57;;;0.57;;
9270;SDS011;4673;53.458;9.940;2023-09-07T00:07:32;0.88;;;0.88;;
9270;SDS011;4673;53.458;9.940;2023-09-07T00:09:58;0.90;;;0.90;;
9270;SDS011;4673;53.458;9.940;2023-09-07T00:12:24;0.80;;;0.80;;
9270;SDS011;4673;53.458;9.940;2023-09-07T00:14:50;0.80;;;0.80;;
9270;SDS011;4673;53.458;9.940;2023-09-07T00:17:17;0.50;;;0.50;;
9270;SDS011;4673;53.458;9.940;2023-09-07T00:19:43;0.90;;;0.90;;
9270;SDS011;4673;53.458;9.940;2023-09-07T00:22:09;0.68;;;0.68;;
9270;SDS011;4673;53.458;9.940;2023-09-07T00:24:34;0.95;;;0.95;;
9270;SDS011;4673;53.458;9.940;2023-09-07T00:27:00;0.77;;;0.77;;
9270;SDS011;4673;53.458;9.940;2023-09-07T00:29:26;0.70;;;0.70;;
9270;SDS011;4673;53.458;9.940;2023-09-07T00:31:51;0.85;;;0.85;;
9270;SDS011;4673;53.458;9.940;2023-09-07T00:34:17;0.88;;;0.88;;
9270;SDS011;4673;53.458;9.940;2023-09-07T00:36:42;1.00;;;1.00;;
9270;SDS011;4673;53.458;9.940;2023-09-07T00:39:08;0.88;;;0.88;;
9270;SDS011;4673;53.458;9.940;2023-09-07T00:41:34;0.93;;;0.93;;
9270;SDS011;4673;53.458;9.940;2023-09-07T00:43:59;0.77;;;0.77;;
9270;SDS011;4673;53.458;9.940;2023-09-07T00:46:25;0.70;;;0.70;;
9270;SDS011;4673;53.458;9.940;2023-09-07T00:48:51;0.65;;;0.65;;
9270;SDS011;4673;53.458;9.940;2023-09-07T00:51:17;0.80;;;0.80;;
9270;SDS011;4673;53.458;9.940;2023-09-07T00:53:43;0.88;;;0.88;;
9270;SDS011;4673;53.458;9.940;2023-09-07T00:56:08;0.73;;;0.73;;
9270;SDS011;4673;53.458;9.940;2023-09-07T00:58:34;0.90;;;0.90;;
9270;SDS011;4673;53.458;9.940;2023-09-07T01:01:01;0.85;;;0.85;;
9270;SDS011;4673;53.458;9.940;2023-09-07T01:03:27;1.15;;;1.15;;
9270;SDS011;4673;53.458;9.940;2023-09-07T01:06:01;0.88;;;0.88;;
9270;SDS011;4673;53.458;9.940;2023-09-07T01:08:35;0.90;;;0.90;;
9270;SDS011;4673;53.458;9.940;2023-09-07T01:11:14;0.80;;;0.80;;
9270;SDS011;4673;53.458;9.940;2023-09-07T01:13:45;0.90;;;0.90;;
9270;SDS011;4673;53.458;9.940;2023-09-07T01:16:11;1.00;;;1.00;;
9270;SDS011;4673;53.458;9.940;2023-09-07T01:18:38;0.82;;;0.82;;
9270;SDS011;4673;53.458;9.940;2023-09-07T01:21:08;0.70;;;0.70;;
9270;SDS011;4673;53.458;9.940;2023-09-07T01:23:38;0.88;;;0.88;;
9270;SDS011;4673;53.458;9.940;2023-09-07T01:26:06;0.68;;;0.68;;
9270;SDS011;4673;53.458;9.940;2023-09-07T01:28:33;0.73;;;0.73;;
9270;SDS011;4673;53.458;9.940;2023-09-07T01:31:03;1.15;;;1.15;;
9270;SDS011;4673;53.458;9.940;2023-09-07T01:33:29;1.05;;;1.05;;
9270;SDS011;4673;53.458;9.940;2023-09-07T01:35:55;1.10;;;1.10;;
9270;SDS011;4673;53.458;9.940;2023-09-07T01:38:20;1.10;;;1.10;;
9270;SDS011;4673;53.458;9.940;2023-09-07T01:40:46;0.93;;;0.93;;
9270;SDS011;4673;53.458;9.940;2023-09-07T01:43:12;0.98;;;0.98;;
9270;SDS011;4673;53.458;9.940;2023-09-07T01:45:37;1.10;;;1.10;;
9270;SDS011;4673;53.458;9.940;2023-09-07T01:48:05;0.90;;;0.90;;
9270;SDS011;4673;53.458;9.940;2023-09-07T01:50:34;0.77;;;0.77;;
9270;SDS011;4673;53.458;9.940;2023-09-07T01:52:59;0.98;;;0.98;;
9270;SDS011;4673;53.458;9.940;2023-09-07T01:55:26;0.80;;;0.80;;
9270;SDS011;4673;53.458;9.940;2023-09-07T01:57:52;0.70;;;0.70;;
9270;SDS011;4673;53.458;9.940;2023-09-07T02:00:18;0.80;;;0.80;;
9270;SDS011;4673;53.458;9.940;2023-09-07T02:02:43;0.88;;;0.88;;
9270;SDS011;4673;53.458;9.940;2023-09-07T02:05:09;0.70;;;0.70;;
9270;SDS011;4673;53.458;9.940;2023-09-07T02:07:35;0.82;;;0.82;;
9270;SDS011;4673;53.458;9.940;2023-09-07T02:10:01;0.93;;;0.93;;
9270;SDS011;4673;53.458;9.940;2023-09-07T02:12:28;1.20;;;1.20;;
9270;SDS011;4673;53.458;9.940;2023-09-07T02:14:55;0.80;;;0.80;;
9270;SDS011;4673;53.458;9.940;2023-09-07T02:17:21;0.55;;;0.55;;
9270;SDS011;4673;53.458;9.940;2023-09-07T02:19:46;0.73;;;0.73;;
9270;SDS011;4673;53.458;9.940;2023-09-07T02:22:12;0.80;;;0.80;;
9270;SDS011;4673;53.458;9.940;2023-09-07T02:24:38;0.93;;;0.93;;
9270;SDS011;4673;53.458;9.940;2023-09-07T02:27:03;0.65;;;0.65;;
9270;SDS011;4673;53.458;9.940;2023-09-07T02:29:29;0.82;;;0.82;;
9270;SDS011;4673;53.458;9.940;2023-09-07T02:31:55;0.98;;;0.98;;
9270;SDS011;4673;53.458;9.940;2023-09-07T02:34:21;0.70;;;0.70;;
9270;SDS011;4673;53.458;9.940;2023-09-07T02:36:47;1.00;;;1.00;;
9270;SDS011;4673;53.458;9.940;2023-09-07T02:39:13;0.95;;;0.95;;
9270;SDS011;4673;53.458;9.940;2023-09-07T02:41:39;1.00;;;1.00;;
9270;SDS011;4673;53.458;9.940;2023-09-07T02:44:04;1.00;;;1.00;;
9270;SDS011;4673;53.458;9.940;2023-09-07T02:46:30;0.82;;;0.82;;
9270;SDS011;4673;53.458;9.940;2023-09-07T02:48:56;0.80;;;0.80;;
9270;SDS011;4673;53.458;9.940;2023-09-07T02:51:25;0.80;;;0.80;;
9270;SDS011;4673;53.458;9.940;2023-09-07T02:53:51;0.63;;;0.63;;
9270;SDS011;4673;53.458;9.940;2023-09-07T02:56:18;0.70;;;0.70;;
9270;SDS011;4673;53.458;9.940;2023-09-07T02:58:44;0.90;;;0.90;;
9270;SDS011;4673;53.458;9.940;2023-09-07T03:01:10;1.00;;;1.00;;
9270;SDS011;4673;53.458;9.940;2023-09-07T03:03:36;0.65;;;0.65;;
9270;SDS011;4673;53.458;9.940;2023-09-07T03:06:09;1.02;;;1.02;;
9270;SDS011;4673;53.458;9.940;2023-09-07T03:08:36;0.77;;;0.77;;
9270;SDS011;4673;53.458;9.940;2023-09-07T03:11:05;0.75;;;0.75;;
9270;SDS011;4673;53.458;9.940;2023-09-07T03:13:32;0.70;;;0.70;;
9270;SDS011;4673;53.458;9.940;2023-09-07T03:15:58;0.75;;;0.75;;
9270;SDS011;4673;53.458;9.940;2023-09-07T03:18:24;0.55;;;0.55;;
9270;SDS011;4673;53.458;9.940;2023-09-07T03:20:50;0.68;;;0.68;;
9270;SDS011;4673;53.458;9.940;2023-09-07T03:23:18;0.75;;;0.75;;
9270;SDS011;4673;53.458;9.940;2023-09-07T03:25:44;1.00;;;1.00;;
9270;SDS011;4673;53.458;9.940;2023-09-07T03:28:09;0.90;;;0.90;;
9270;SDS011;4673;53.458;9.940;2023-09-07T03:30:35;1.10;;;1.10;;
9270;SDS011;4673;53.458;9.940;2023-09-07T03:33:01;0.82;;;0.82;;
9270;SDS011;4673;53.458;9.940;2023-09-07T03:35:28;0.60;;;0.60;;
9270;SDS011;4673;53.458;9.940;2023-09-07T03:37:53;0.75;;;0.75;;
9270;SDS011;4673;53.458;9.940;2023-09-07T03:40:20;0.77;;;0.77;;
9270;SDS011;4673;53.458;9.940;2023-09-07T03:42:45;1.33;;;1.33;;
9270;SDS011;4673;53.458;9.940;2023-09-07T03:45:11;1.00;;;1.00;;
9270;SDS011;4673;53.458;9.940;2023-09-07T03:47:37;0.80;;;0.80;;
9270;SDS011;4673;53.458;9.940;2023-09-07T03:50:03;0.98;;;0.98;;
9270;SDS011;4673;53.458;9.940;2023-09-07T03:52:29;0.70;;;0.70;;
9270;SDS011;4673;53.458;9.940;2023-09-07T03:54:56;1.00;;;1.00;;
9270;SDS011;4673;53.458;9.940;2023-09-07T03:57:22;0.88;;;0.88;;
9270;SDS011;4673;53.458;9.940;2023-09-07T03:59:49;0.90;;;0.90;;
9270;SDS011;4673;53.458;9.940;2023-09-07T04:02:14;0.98;;;0.98;;
9270;SDS011;4673;53.458;9.940;2023-09-07T04:04:42;0.73;;;0.73;;
9270;SDS011;4673;53.458;9.940;2023-09-07T04:07:08;0.60;;;0.60;;
9270;SDS011;4673;53.458;9.940;2023-09-07T04:09:33;1.05;;;1.05;;
9270;SDS011;4673;53.458;9.940;2023-09-07T04:12:00;0.77;;;0.77;;
9270;SDS011;4673;53.458;9.940;2023-09-07T04:14:25;0.90;;;0.90;;
9270;SDS011;4673;53.458;9.940;2023-09-07T04:16:51;0.73;;;0.73;;
9270;SDS011;4673;53.458;9.940;2023-09-07T04:19:17;0.68;;;0.68;;
9270;SDS011;4673;53.458;9.940;2023-09-07T04:21:42;1.00;;;1.00;;
9270;SDS011;4673;53.458;9.940;2023-09-07T04:24:08;0.70;;;0.70;;
9270;SDS011;4673;53.458;9.940;2023-09-07T04:26:34;1.23;;;1.23;;
9270;SDS011;4673;53.458;9.940;2023-09-07T04:28:59;0.73;;;0.73;;
9270;SDS011;4673;53.458;9.940;2023-09-07T04:31:25;0.63;;;0.63;;
9270;SDS011;4673;53.458;9.940;2023-09-07T04:33:52;0.95;;;0.95;;
9270;SDS011;4673;53.458;9.940;2023-09-07T04:36:19;0.82;;;0.82;;
9270;SDS011;4673;53.458;9.940;2023-09-07T04:38:44;1.02;;;1.02;;
9270;SDS011;4673;53.458;9.940;2023-09-07T04:41:11;1.00;;;1.00;;
9270;SDS011;4673;53.458;9.940;2023-09-07T04:43:38;1.00;;;1.00;;
9270;SDS011;4673;53.458;9.940;2023-09-07T04:46:10;0.90;;;0.90;;
9270;SDS011;4673;53.458;9.940;2023-09-07T04:48:37;0.52;;;0.52;;
9270;SDS011;4673;53.458;9.940;2023-09-07T04:51:04;0.88;;;0.88;;
9270;SDS011;4673;53.458;9.940;2023-09-07T04:53:34;0.88;;;0.88;;
9270;SDS011;4673;53.458;9.940;2023-09-07T04:56:02;0.85;;;0.85;;
9270;SDS011;4673;53.458;9.940;2023-09-07T04:58:28;0.73;;;0.73;;
9270;SDS011;4673;53.458;9.940;2023-09-07T05:01:00;0.98;;;0.98;;
9270;SDS011;4673;53.458;9.940;2023-09-07T05:03:27;0.80;;;0.80;;
9270;SDS011;4673;53.458;9.940;2023-09-07T05:05:53;0.90;;;0.90;;
9270;SDS011;4673;53.458;9.940;2023-09-07T05:08:19;1.10;;;1.10;;
9270;SDS011;4673;53.458;9.940;2023-09-07T05:10:45;1.05;;;1.05;;
9270;SDS011;4673;53.458;9.940;2023-09-07T05:13:10;0.98;;;0.98;;
9270;SDS011;4673;53.458;9.940;2023-09-07T05:15:36;1.35;;;1.35;;
9270;SDS011;4673;53.458;9.940;2023-09-07T05:18:02;0.98;;;0.98;;
9270;SDS011;4673;53.458;9.940;2023-09-07T05:20:29;0.90;;;0.90;;
9270;SDS011;4673;53.458;9.940;2023-09-07T05:22:56;1.02;;;1.02;;
9270;SDS011;4673;53.458;9.940;2023-09-07T05:25:22;1.13;;;1.13;;
9270;SDS011;4673;53.458;9.940;2023-09-07T05:27:48;1.05;;;1.05;;
9270;SDS011;4673;53.458;9.940;2023-09-07T05:30:14;0.80;;;0.80;;
9270;SDS011;4673;53.458;9.940;2023-09-07T05:32:39;1.10;;;1.10;;
9270;SDS011;4673;53.458;9.940;2023-09-07T05:35:06;0.90;;;0.90;;
9270;SDS011;4673;53.458;9.940;2023-09-07T05:37:37;0.90;;;0.90;;
9270;SDS011;4673;53.458;9.940;2023-09-07T05:40:02;1.25;;;1.25;;
9270;SDS011;4673;53.458;9.940;2023-09-07T05:42:29;1.05;;;1.05;;
9270;SDS011;4673;53.458;9.940;2023-09-07T05:44:54;0.70;;;0.70;;
9270;SDS011;4673;53.458;9.940;2023-09-07T05:47:20;1.20;;;1.20;;
9270;SDS011;4673;53.458;9.940;2023-09-07T05:49:46;0.70;;;0.70;;
9270;SDS011;4673;53.458;9.940;2023-09-07T05:52:11;1.02;;;1.02;;
9270;SDS011;4673;53.458;9.940;2023-09-07T05:54:37;1.02;;;1.02;;
9270;SDS011;4673;53.458;9.940;2023-09-07T05:57:03;0.93;;;0.93;;
9270;SDS011;4673;53.458;9.940;2023-09-07T05:59:28;0.77;;;0.77;;
9270;SDS011;4673;53.458;9.940;2023-09-07T06:01:54;0.98;;;0.98;;
9270;SDS011;4673;53.458;9.940;2023-09-07T06:04:20;1.23;;;1.23;;
9270;SDS011;4673;53.458;9.940;2023-09-07T06:06:48;1.02;;;1.02;;
9270;SDS011;4673;53.458;9.940;2023-09-07T06:09:14;0.98;;;0.98;;
9270;SDS011;4673;53.458;9.940;2023-09-07T06:11:39;1.50;;;1.50;;
9270;SDS011;4673;53.458;9.940;2023-09-07T06:14:05;1.00;;;1.00;;
9270;SDS011;4673;53.458;9.940;2023-09-07T06:16:31;1.05;;;1.05;;
9270;SDS011;4673;53.458;9.940;2023-09-07T06:18:58;1.30;;;1.30;;
9270;SDS011;4673;53.458;9.940;2023-09-07T06:21:23;1.15;;;1.15;;
9270;SDS011;4673;53.458;9.940;2023-09-07T06:23:49;1.00;;;1.00;;
9270;SDS011;4673;53.458;9.940;2023-09-07T06:26:15;1.40;;;1.40;;
9270;SDS011;4673;53.458;9.940;2023-09-07T06:28:42;1.00;;;1.00;;
9270;SDS011;4673;53.458;9.940;2023-09-07T06:31:08;1.25;;;1.25;;
9270;SDS011;4673;53.458;9.940;2023-09-07T06:33:34;1.10;;;1.10;;
9270;SDS011;4673;53.458;9.940;2023-09-07T06:35:59;1.02;;;1.02;;
9270;SDS011;4673;53.458;9.940;2023-09-07T06:38:27;1.10;;;1.10;;
9270;SDS011;4673;53.458;9.940;2023-09-07T06:40:53;0.82;;;0.82;;
9270;SDS011;4673;53.458;9.940;2023-09-07T06:43:18;1.42;;;1.42;;
9270;SDS011;4673;53.458;9.940;2023-09-07T06:45:44;1.27;;;1.27;;
9270;SDS011;4673;53.458;9.940;2023-09-07T06:48:09;1.25;;;1.25;;
9270;SDS011;4673;53.458;9.940;2023-09-07T06:50:35;1.40;;;1.40;;
9270;SDS011;4673;53.458;9.940;2023-09-07T06:53:01;1.33;;;1.33;;
9270;SDS011;4673;53.458;9.940;2023-09-07T06:55:27;1.25;;;1.25;;
9270;SDS011;4673;53.458;9.940;2023-09-07T06:57:54;1.38;;;1.38;;
9270;SDS011;4673;53.458;9.940;2023-09-07T07:00:20;0.90;;;0.90;;
9270;SDS011;4673;53.458;9.940;2023-09-07T07:02:46;1.52;;;1.52;;
9270;SDS011;4673;53.458;9.940;2023-09-07T07:05:12;1.20;;;1.20;;
9270;SDS011;4673;53.458;9.940;2023-09-07T07:07:38;1.52;;;1.52;;
9270;SDS011;4673;53.458;9.940;2023-09-07T07:10:04;1.58;;;1.58;;
9270;SDS011;4673;53.458;9.940;2023-09-07T07:12:31;1.33;;;1.33;;
9270;SDS011;4673;53.458;9.940;2023-09-07T07:14:59;1.60;;;1.60;;
9270;SDS011;4673;53.458;9.940;2023-09-07T07:17:29;1.50;;;1.50;;
9270;SDS011;4673;53.458;9.940;2023-09-07T07:19:54;1.60;;;1.60;;
9270;SDS011;4673;53.458;9.940;2023-09-07T07:22:20;1.95;;;1.95;;
9270;SDS011;4673;53.458;9.940;2023-09-07T07:24:46;2.05;;;2.05;;
9270;SDS011;4673;53.458;9.940;2023-09-07T07:27:12;1.60;;;1.60;;
9270;SDS011;4673;53.458;9.940;2023-09-07T07:29:37;1.55;;;1.55;;
9270;SDS011;4673;53.458;9.940;2023-09-07T07:32:03;1.42;;;1.42;;
9270;SDS011;4673;53.458;9.940;2023-09-07T07:34:29;2.05;;;2.05;;
9270;SDS011;4673;53.458;9.940;2023-09-07T07:36:55;2.00;;;2.00;;
9270;SDS011;4673;53.458;9.940;2023-09-07T07:39:20;1.92;;;1.92;;
9270;SDS011;4673;53.458;9.940;2023-09-07T07:41:46;2.17;;;2.17;;
9270;SDS011;4673;53.458;9.940;2023-09-07T07:44:12;1.95;;;1.95;;
9270;SDS011;4673;53.458;9.940;2023-09-07T07:46:38;1.73;;;1.73;;
9270;SDS011;4673;53.458;9.940;2023-09-07T07:49:03;1.77;;;1.77;;
9270;SDS011;4673;53.458;9.940;2023-09-07T07:51:29;1.88;;;1.88;;
9270;SDS011;4673;53.458;9.940;2023-09-07T07:53:55;1.65;;;1.65;;
9270;SDS011;4673;53.458;9.940;2023-09-07T07:56:23;1.95;;;1.95;;
9270;SDS011;4673;53.458;9.940;2023-09-07T07:58:49;1.73;;;1.73;;
9270;SDS011;4673;53.458;9.940;2023-09-07T08:01:15;1.70;;;1.70;;
9270;SDS011;4673;53.458;9.940;2023-09-07T08:03:42;1.35;;;1.35;;
9270;SDS011;4673;53.458;9.940;2023-09-07T08:06:08;1.42;;;1.42;;
9270;SDS011;4673;53.458;9.940;2023-09-07T08:08:34;1.25;;;1.25;;
9270;SDS011;4673;53.458;9.940;2023-09-07T08:11:00;1.50;;;1.50;;
9270;SDS011;4673;53.458;9.940;2023-09-07T08:13:30;1.48;;;1.48;;
9270;SDS011;4673;53.458;9.940;2023-09-07T08:16:00;1.45;;;1.45;;
9270;SDS011;4673;53.458;9.940;2023-09-07T08:18:29;1.77;;;1.77;;
9270;SDS011;4673;53.458;9.940;2023-09-07T08:20:59;1.58;;;1.58;;
9270;SDS011;4673;53.458;9.940;2023-09-07T08:23:25;1.50;;;1.50;;
9270;SDS011;4673;53.458;9.940;2023-09-07T08:25:51;1.50;;;1.50;;
9270;SDS011;4673;53.458;9.940;2023-09-07T08:28:17;1.60;;;1.60;;
9270;SDS011;4673;53.458;9.940;2023-09-07T08:30:44;1.77;;;1.77;;
9270;SDS011;4673;53.458;9.940;2023-09-07T08:33:10;1.08;;;1.08;;
9270;SDS011;4673;53.458;9.940;2023-09-07T08:35:35;1.63;;;1.63;;
9270;SDS011;4673;53.458;9.940;2023-09-07T08:38:09;1.75;;;1.75;;
9270;SDS011;4673;53.458;9.940;2023-09-07T08:40:38;1.52;;;1.52;;
9270;SDS011;4673;53.458;9.940;2023-09-07T08:43:08;1.23;;;1.23;;
9270;SDS011;4673;53.458;9.940;2023-09-07T08:45:37;1.40;;;1.40;;
9270;SDS011;4673;53.458;9.940;2023-09-07T08:48:13;1.40;;;1.40;;
9270;SDS011;4673;53.458;9.940;2023-09-07T08:50:42;1.35;;;1.35;;
9270;SDS011;4673;53.458;9.940;2023-09-07T08:53:15;1.00;;;1.00;;
9270;SDS011;4673;53.458;9.940;2023-09-07T08:55:45;1.30;;;1.30;;
9270;SDS011;4673;53.458;9.940;2023-09-07T08:58:11;1.30;;;1.30;;
9270;SDS011;4673;53.458;9.940;2023-09-07T09:00:37;1.42;;;1.42;;
9270;SDS011;4673;53.458;9.940;2023-09-07T09:03:03;1.27;;;1.27;;
9270;SDS011;4673;53.458;9.940;2023-09-07T09:05:30;1.83;;;1.83;;
9270;SDS011;4673;53.458;9.940;2023-09-07T09:08:03;1.27;;;1.27;;
9270;SDS011;4673;53.458;9.940;2023-09-07T09:10:29;1.20;;;1.20;;
9270;SDS011;4673;53.458;9.940;2023-09-07T09:12:55;1.45;;;1.45;;
9270;SDS011;4673;53.458;9.940;2023-09-07T09:15:22;1.02;;;1.02;;
9270;SDS011;4673;53.458;9.940;2023-09-07T09:17:47;1.30;;;1.30;;
9270;SDS011;4673;53.458;9.940;2023-09-07T09:20:23;1.20;;;1.20;;
9270;SDS011;4673;53.458;9.940;2023-09-07T09:22:52;1.15;;;1.15;;
9270;SDS011;4673;53.458;9.940;2023-09-07T09:25:19;2.08;;;2.08;;
9270;SDS011;4673;53.458;9.940;2023-09-07T09:27:48;1.45;;;1.45;;
9270;SDS011;4673;53.458;9.940;2023-09-07T09:30:14;1.17;;;1.17;;
9270;SDS011;4673;53.458;9.940;2023-09-07T09:32:41;1.23;;;1.23;;
9270;SDS011;4673;53.458;9.940;2023-09-07T09:35:08;1.27;;;1.27;;
9270;SDS011;4673;53.458;9.940;2023-09-07T09:37:34;1.63;;;1.63;;
9270;SDS011;4673;53.458;9.940;2023-09-07T09:40:08;1.27;;;1.27;;
9270;SDS011;4673;53.458;9.940;2023-09-07T09:42:35;1.20;;;1.20;;
9270;SDS011;4673;53.458;9.940;2023-09-07T09:45:02;1.40;;;1.40;;
9270;SDS011;4673;53.458;9.940;2023-09-07T09:47:30;1.00;;;1.00;;
9270;SDS011;4673;53.458;9.940;2023-09-07T09:49:56;1.20;;;1.20;;
9270;SDS011;4673;53.458;9.940;2023-09-07T09:52:23;1.13;;;1.13;;
9270;SDS011;4673;53.458;9.940;2023-09-07T09:54:51;1.05;;;1.05;;
9270;SDS011;4673;53.458;9.940;2023-09-07T09:57:17;1.33;;;1.33;;
9270;SDS011;4673;53.458;9.940;2023-09-07T09:59:43;1.10;;;1.10;;
9270;SDS011;4673;53.458;9.940;2023-09-07T10:02:09;1.40;;;1.40;;
9270;SDS011;4673;53.458;9.940;2023-09-07T10:04:36;0.90;;;0.90;;
9270;SDS011;4673;53.458;9.940;2023-09-07T10:07:02;0.95;;;0.95;;
9270;SDS011;4673;53.458;9.940;2023-09-07T10:09:34;1.15;;;1.15;;
9270;SDS011;4673;53.458;9.940;2023-09-07T10:12:02;1.13;;;1.13;;
9270;SDS011;4673;53.458;9.940;2023-09-07T10:14:41;1.23;;;1.23;;
9270;SDS011;4673;53.458;9.940;2023-09-07T10:17:09;1.05;;;1.05;;
9270;SDS011;4673;53.458;9.940;2023-09-07T10:19:46;1.20;;;1.20;;
9270;SDS011;4673;53.458;9.940;2023-09-07T10:22:22;1.00;;;1.00;;
9270;SDS011;4673;53.458;9.940;2023-09-07T10:24:56;1.05;;;1.05;;
9270;SDS011;4673;53.458;9.940;2023-09-07T10:27:24;1.08;;;1.08;;
9270;SDS011;4673;53.458;9.940;2023-09-07T10:29:50;1.00;;;1.00;;
9270;SDS011;4673;53.458;9.940;2023-09-07T10:32:19;1.33;;;1.33;;
9270;SDS011;4673;53.458;9.940;2023-09-07T10:34:45;1.30;;;1.30;;
9270;SDS011;4673;53.458;9.940;2023-09-07T10:37:11;1.17;;;1.17;;
9270;SDS011;4673;53.458;9.940;2023-09-07T10:39:42;1.00;;;1.00;;
9270;SDS011;4673;53.458;9.940;2023-09-07T10:42:08;1.05;;;1.05;;
9270;SDS011;4673;53.458;9.940;2023-09-07T10:44:52;1.08;;;1.08;;
9270;SDS011;4673;53.458;9.940;2023-09-07T10:47:18;1.00;;;1.00;;
9270;SDS011;4673;53.458;9.940;2023-09-07T10:49:43;0.98;;;0.98;;
9270;SDS011;4673;53.458;9.940;2023-09-07T10:52:09;1.10;;;1.10;;
9270;SDS011;4673;53.458;9.940;2023-09-07T10:54:35;1.40;;;1.40;;
9270;SDS011;4673;53.458;9.940;2023-09-07T10:57:11;1.23;;;1.23;;
9270;SDS011;4673;53.458;9.940;2023-09-07T10:59:45;0.90;;;0.90;;
9270;SDS011;4673;53.458;9.940;2023-09-07T11:02:11;1.30;;;1.30;;
9270;SDS011;4673;53.458;9.940;2023-09-07T11:04:36;0.98;;;0.98;;
9270;SDS011;4673;53.458;9.940;2023-09-07T11:07:02;1.17;;;1.17;;
9270;SDS011;4673;53.458;9.940;2023-09-07T11:09:31;1.27;;;1.27;;
9270;SDS011;4673;53.458;9.940;2023-09-07T11:12:03;1.13;;;1.13;;
9270;SDS011;4673;53.458;9.940;2023-09-07T11:14:29;0.93;;;0.93;;
9270;SDS011;4673;53.458;9.940;2023-09-07T11:16:55;1.02;;;1.02;;
9270;SDS011;4673;53.458;9.940;2023-09-07T11:19:21;0.88;;;0.88;;
9270;SDS011;4673;53.458;9.940;2023-09-07T11:21:47;1.20;;;1.20;;
9270;SDS011;4673;53.458;9.940;2023-09-07T11:24:13;0.93;;;0.93;;
9270;SDS011;4673;53.458;9.940;2023-09-07T11:26:45;1.13;;;1.13;;
9270;SDS011;4673;53.458;9.940;2023-09-07T11:29:16;1.00;;;1.00;;
9270;SDS011;4673;53.458;9.940;2023-09-07T11:31:43;0.80;;;0.80;;
9270;SDS011;4673;53.458;9.940;2023-09-07T11:34:10;1.35;;;1.35;;
9270;SDS011;4673;53.458;9.940;2023-09-07T11:36:37;1.05;;;1.05;;
9270;SDS011;4673;53.458;9.940;2023-09-07T11:39:04;1.10;;;1.10;;
9270;SDS011;4673;53.458;9.940;2023-09-07T11:41:40;1.20;;;1.20;;
9270;SDS011;4673;53.458;9.940;2023-09-07T11:44:06;1.23;;;1.23;;
9270;SDS011;4673;53.458;9.940;2023-09-07T11:46:32;0.82;;;0.82;;
9270;SDS011;4673;53.458;9.940;2023-09-07T11:48:58;1.10;;;1.10;;
9270;SDS011;4673;53.458;9.940;2023-09-07T11:51:24;1.05;;;1.05;;
9270;SDS011;4673;53.458;9.940;2023-09-07T11:53:50;1.13;;;1.13;;
9270;SDS011;4673;53.458;9.940;2023-09-07T11:56:16;1.75;;;1.75;;
9270;SDS011;4673;53.458;9.940;2023-09-07T11:58:41;1.02;;;1.02;;
9270;SDS011;4673;53.458;9.940;2023-09-07T12:01:09;1.08;;;1.08;;
9270;SDS011;4673;53.458;9.940;2023-09-07T12:03:34;1.35;;;1.35;;
9270;SDS011;4673;53.458;9.940;2023-09-07T12:06:00;1.00;;;1.00;;
9270;SDS011;4673;53.458;9.940;2023-09-07T12:08:26;1.02;;;1.02;;
9270;SDS011;4673;53.458;9.940;2023-09-07T12:10:52;0.90;;;0.90;;
9270;SDS011;4673;53.458;9.940;2023-09-07T12:13:17;0.80;;;0.80;;
9270;SDS011;4673;53.458;9.940;2023-09-07T12:15:43;0.85;;;0.85;;
9270;SDS011;4673;53.458;9.940;2023-09-07T12:18:09;1.20;;;1.20;;
9270;SDS011;4673;53.458;9.940;2023-09-07T12:20:34;1.10;;;1.10;;
9270;SDS011;4673;53.458;9.940;2023-09-07T12:23:00;0.70;;;0.70;;
9270;SDS011;4673;53.458;9.940;2023-09-07T12:25:27;1.20;;;1.20;;
9270;SDS011;4673;53.458;9.940;2023-09-07T12:27:53;1.08;;;1.08;;
9270;SDS011;4673;53.458;9.940;2023-09-07T12:30:19;1.08;;;1.08;;
9270;SDS011;4673;53.458;9.940;2023-09-07T12:32:47;1.10;;;1.10;;
9270;SDS011;4673;53.458;9.940;2023-09-07T12:35:13;0.95;;;0.95;;
9270;SDS011;4673;53.458;9.940;2023-09-07T12:37:39;0.82;;;0.82;;
9270;SDS011;4673;53.458;9.940;2023-09-07T12:40:05;0.80;;;0.80;;
9270;SDS011;4673;53.458;9.940;2023-09-07T12:42:40;1.00;;;1.00;;
9270;SDS011;4673;53.458;9.940;2023-09-07T12:45:10;1.40;;;1.40;;
9270;SDS011;4673;53.458;9.940;2023-09-07T12:47:38;0.98;;;0.98;;
9270;SDS011;4673;53.458;9.940;2023-09-07T12:50:04;0.82;;;0.82;;
9270;SDS011;4673;53.458;9.940;2023-09-07T12:52:30;0.95;;;0.95;;
9270;SDS011;4673;53.458;9.940;2023-09-07T12:54:56;1.30;;;1.30;;
9270;SDS011;4673;53.458;9.940;2023-09-07T12:57:22;1.00;;;1.00;;
9270;SDS011;4673;53.458;9.940;2023-09-07T12:59:47;1.10;;;1.10;;
9270;SDS011;4673;53.458;9.940;2023-09-07T13:02:14;1.10;;;1.10;;
9270;SDS011;4673;53.458;9.940;2023-09-07T13:04:40;1.00;;;1.00;;
9270;SDS011;4673;53.458;9.940;2023-09-07T13:07:05;0.88;;;0.88;;
9270;SDS011;4673;53.458;9.940;2023-09-07T13:09:31;0.95;;;0.95;;
9270;SDS011;4673;53.458;9.940;2023-09-07T13:11:56;0.95;;;0.95;;
9270;SDS011;4673;53.458;9.940;2023-09-07T13:14:22;1.02;;;1.02;;
9270;SDS011;4673;53.458;9.940;2023-09-07T13:16:48;0.88;;;0.88;;
9270;SDS011;4673;53.458;9.940;2023-09-07T13:19:15;1.00;;;1.00;;
9270;SDS011;4673;53.458;9.940;2023-09-07T13:21:41;1.33;;;1.33;;
9270;SDS011;4673;53.458;9.940;2023-09-07T13:24:07;0.60;;;0.60;;
9270;SDS011;4673;53.458;9.940;2023-09-07T13:26:32;1.20;;;1.20;;
9270;SDS011;4673;53.458;9.940;2023-09-07T13:28:58;1.05;;;1.05;;
9270;SDS011;4673;53.458;9.940;2023-09-07T13:31:24;0.95;;;0.95;;
9270;SDS011;4673;53.458;9.940;2023-09-07T13:33:49;0.73;;;0.73;;
9270;SDS011;4673;53.458;9.940;2023-09-07T13:36:15;1.35;;;1.35;;
9270;SDS011;4673;53.458;9.940;2023-09-07T13:38:42;1.10;;;1.10;;
9270;SDS011;4673;53.458;9.940;2023-09-07T13:41:08;0.77;;;0.77;;
9270;SDS011;4673;53.458;9.940;2023-09-07T13:43:34;0.82;;;0.82;;
9270;SDS011;4673;53.458;9.940;2023-09-07T13:46:00;0.98;;;0.98;;
9270;SDS011;4673;53.458;9.940;2023-09-07T13:48:25;0.80;;;0.80;;
9270;SDS011;4673;53.458;9.940;2023-09-07T13:50:51;0.90;;;0.90;;
9270;SDS011;4673;53.458;9.940;2023-09-07T13:53:17;0.90;;;0.90;;
9270;SDS011;4673;53.458;9.940;2023-09-07T13:55:42;0.73;;;0.73;;
9270;SDS011;4673;53.458;9.940;2023-09-07T13:58:11;0.82;;;0.82;;
9270;SDS011;4673;53.458;9.940;2023-09-07T14:00:36;0.77;;;0.77;;
9270;SDS011;4673;53.458;9.940;2023-09-07T14:03:03;0.77;;;0.77;;
9270;SDS011;4673;53.458;9.940;2023-09-07T14:05:29;0.98;;;0.98;;
9270;SDS011;4673;53.458;9.940;2023-09-07T14:07:55;0.85;;;0.85;;
9270;SDS011;4673;53.458;9.940;2023-09-07T14:10:22;0.82;;;0.82;;
9270;SDS011;4673;53.458;9.940;2023-09-07T14:12:47;0.90;;;0.90;;
9270;SDS011;4673;53.458;9.940;2023-09-07T14:15:13;1.10;;;1.10;;
9270;SDS011;4673;53.458;9.940;2023-09-07T14:17:39;1.10;;;1.10;;
9270;SDS011;4673;53.458;9.940;2023-09-07T14:20:05;0.90;;;0.90;;
9270;SDS011;4673;53.458;9.940;2023-09-07T14:22:31;0.80;;;0.80;;
9270;SDS011;4673;53.458;9.940;2023-09-07T14:24:56;0.88;;;0.88;;
9270;SDS011;4673;53.458;9.940;2023-09-07T14:27:22;0.70;;;0.70;;
9270;SDS011;4673;53.458;9.940;2023-09-07T14:29:49;0.93;;;0.93;;
9270;SDS011;4673;53.458;9.940;2023-09-07T14:32:14;0.85;;;0.85;;
9270;SDS011;4673;53.458;9.940;2023-09-07T14:34:40;1.20;;;1.20;;
9270;SDS011;4673;53.458;9.940;2023-09-07T14:37:06;0.63;;;0.63;;
9270;SDS011;4673;53.458;9.940;2023-09-07T14:39:31;0.98;;;0.98;;
9270;SDS011;4673;53.458;9.940;2023-09-07T14:41:57;0.85;;;0.85;;
9270;SDS011;4673;53.458;9.940;2023-09-07T14:44:23;0.77;;;0.77;;
9270;SDS011;4673;53.458;9.940;2023-09-07T14:46:49;0.82;;;0.82;;
9270;SDS011;4673;53.458;9.940;2023-09-07T14:49:15;0.82;;;0.82;;
9270;SDS011;4673;53.458;9.940;2023-09-07T14:51:44;1.13;;;1.13;;
9270;SDS011;4673;53.458;9.940;2023-09-07T14:54:12;1.00;;;1.00;;
9270;SDS011;4673;53.458;9.940;2023-09-07T14:56:38;0.80;;;0.80;;
9270;SDS011;4673;53.458;9.940;2023-09-07T14:59:04;0.75;;;0.75;;
9270;SDS011;4673;53.458;9.940;2023-09-07T15:01:30;0.60;;;0.60;;
9270;SDS011;4673;53.458;9.940;2023-09-07T15:03:56;0.73;;;0.73;;
9270;SDS011;4673;53.458;9.940;2023-09-07T15:06:22;0.90;;;0.90;;
9270;SDS011;4673;53.458;9.940;2023-09-07T15:08:48;0.70;;;0.70;;
9270;SDS011;4673;53.458;9.940;2023-09-07T15:11:15;1.13;;;1.13;;